Time;durP1;ratioP1;P1;durP2;ratioP2;P2;SDS_P1;SDS_P2;PMS_P1;PMS_P2;Temp;Humidity;BMP_temperature;BMP_pressure;BME280_temperature;BME280_humidity;BME280_pressure;Samples;Min_cycle;Max_cycle;Signal;HPM_P1;HPM_P2
2021/01/13 00:00:12;;;;;;;7.33;2.07;;;2.20;99.90;;;;;;6167300;23;20435;-80
2021/01/13 00:02:44;;;;;;;6.13;1.57;;;2.20;99.90;;;;;;6166492;23;20443;-80
2021/01/13 00:05:13;;;;;;;5.80;2.07;;;2.20;99.90;;;;;;6203342;23;20388;-81
2021/01/13 00:07:41;;;;;;;6.50;2.30;;;2.20;99.90;;;;;;6166230;23;20427;-81
2021/01/13 00:10:11;;;;;;;5.50;2.27;;;2.20;99.90;;;;;;6166018;23;20435;-80
2021/01/13 00:12:38;;;;;;;6.00;1.67;;;2.20;99.90;;;;;;6166282;23;20498;-81
2021/01/13 00:15:07;;;;;;;7.27;2.63;;;2.20;99.90;;;;;;6166500;23;20408;-80
2021/01/13 00:17:35;;;;;;;6.87;2.40;;;2.20;99.90;;;;;;6166342;23;20800;-81
2021/01/13 00:20:05;;;;;;;8.97;2.00;;;2.20;99.90;;;;;;6165963;23;20697;-80
2021/01/13 00:22:35;;;;;;;7.20;2.83;;;2.20;99.90;;;;;;6166721;23;20471;-80
2021/01/13 00:25:05;;;;;;;4.90;2.50;;;2.20;99.90;;;;;;6204025;23;20390;-80
2021/01/13 00:27:33;;;;;;;6.33;1.87;;;2.20;99.90;;;;;;6166814;23;20419;-80
2021/01/13 00:30:00;;;;;;;4.33;1.40;;;2.30;99.90;;;;;;6165546;23;20485;-81
2021/01/13 00:32:27;;;;;;;9.50;2.77;;;2.30;99.90;;;;;;6202738;23;20435;-80
2021/01/13 00:34:55;;;;;;;8.20;2.00;;;2.30;99.90;;;;;;6164791;23;20420;-80
2021/01/13 00:37:22;;;;;;;5.23;1.63;;;2.30;99.90;;;;;;6203557;23;20398;-80
2021/01/13 00:39:50;;;;;;;8.00;2.70;;;2.30;99.90;;;;;;6167388;23;20435;-80
2021/01/13 00:42:18;;;;;;;5.63;2.13;;;2.40;99.90;;;;;;6164741;23;20420;-80
2021/01/13 00:44:45;;;;;;;6.33;2.20;;;2.40;99.90;;;;;;6165304;23;20953;-80
2021/01/13 00:47:14;;;;;;;6.73;2.57;;;2.40;99.90;;;;;;6202129;23;20771;-80
2021/01/13 00:49:41;;;;;;;5.47;1.90;;;2.30;99.90;;;;;;6165459;23;20439;-80
2021/01/13 00:52:10;;;;;;;7.67;2.07;;;2.30;99.90;;;;;;6165556;23;20443;-80
2021/01/13 00:54:38;;;;;;;5.30;2.00;;;2.30;99.90;;;;;;6201872;23;20399;-80
2021/01/13 00:57:09;;;;;;;6.00;2.50;;;2.30;99.90;;;;;;6165153;23;20517;-80
2021/01/13 00:59:36;;;;;;;11.47;3.03;;;2.30;99.90;;;;;;6165183;23;20462;-80
2021/01/13 01:02:03;;;;;;;10.30;2.30;;;2.30;99.90;;;;;;6165240;23;20420;-80
2021/01/13 01:04:31;;;;;;;7.93;2.40;;;2.20;99.90;;;;;;6202419;23;20702;-80
2021/01/13 01:07:02;;;;;;;4.80;2.00;;;2.20;99.90;;;;;;6165948;23;20447;-80
2021/01/13 01:09:30;;;;;;;7.10;2.17;;;2.20;99.90;;;;;;6166056;23;20438;-80
2021/01/13 01:11:57;;;;;;;5.90;2.00;;;2.30;99.90;;;;;;6165897;23;20414;-80
2021/01/13 01:14:25;;;;;;;7.47;2.50;;;2.20;99.90;;;;;;6202884;23;20886;-80
2021/01/13 01:16:52;;;;;;;3.90;1.77;;;2.20;99.90;;;;;;6203025;23;20388;-80
2021/01/13 01:19:21;;;;;;;6.30;2.33;;;2.20;99.90;;;;;;6202649;23;20423;-80
2021/01/13 01:21:48;;;;;;;5.80;2.20;;;2.10;99.90;;;;;;6165956;23;20456;-81
2021/01/13 01:24:15;;;;;;;9.97;2.40;;;2.10;99.90;;;;;;6170115;23;20479;-79
2021/01/13 01:26:44;;;;;;;7.30;2.40;;;2.10;99.90;;;;;;6200775;23;20401;-80
2021/01/13 01:29:12;;;;;;;5.03;2.53;;;2.10;99.90;;;;;;6164479;23;20435;-80
2021/01/13 01:31:40;;;;;;;6.53;2.20;;;2.10;99.90;;;;;;6164709;23;20504;-80
2021/01/13 01:34:08;;;;;;;7.07;1.70;;;2.10;99.90;;;;;;6164444;23;20436;-80
2021/01/13 01:36:35;;;;;;;8.70;2.07;;;2.10;99.90;;;;;;6164928;23;20511;-80
2021/01/13 01:39:03;;;;;;;3.23;1.80;;;2.10;99.90;;;;;;6164721;23;20457;-80
2021/01/13 01:41:30;;;;;;;6.50;1.70;;;2.10;99.90;;;;;;6165072;23;20876;-80
2021/01/13 01:43:58;;;;;;;10.63;2.27;;;2.10;99.90;;;;;;6201106;23;20929;-80
2021/01/13 01:46:26;;;;;;;8.70;2.57;;;2.10;99.90;;;;;;6202198;23;20494;-80
2021/01/13 01:48:56;;;;;;;10.40;2.70;;;2.10;99.90;;;;;;6165305;23;20493;-80
2021/01/13 01:51:24;;;;;;;5.80;2.20;;;2.10;99.90;;;;;;6202326;23;20381;-80
2021/01/13 01:54:23;;;;;;;10.67;2.10;;;2.10;99.90;;;;;;6164882;23;20432;-80
2021/01/13 01:56:52;;;;;;;10.50;1.80;;;2.20;99.90;;;;;;6166005;23;20859;-80
2021/01/13 01:59:34;;;;;;;12.60;2.27;;;2.10;99.90;;;;;;6165930;23;20479;-80
2021/01/13 02:02:04;;;;;;;5.33;1.93;;;2.20;99.90;;;;;;6165965;23;20794;-80
2021/01/13 02:04:32;;;;;;;5.13;1.60;;;2.20;99.90;;;;;;6166182;23;20507;-80
2021/01/13 02:07:31;;;;;;;4.37;1.57;;;2.20;99.90;;;;;;6165579;23;20420;-80
2021/01/13 02:10:00;;;;;;;7.20;1.80;;;2.20;99.90;;;;;;6164454;23;20435;-80
2021/01/13 02:12:33;;;;;;;3.17;1.20;;;2.20;99.90;;;;;;6163953;23;20432;-80
2021/01/13 02:15:03;;;;;;;5.03;1.50;;;2.30;99.90;;;;;;6163388;23;20427;-80
2021/01/13 02:17:34;;;;;;;4.23;1.20;;;2.20;99.90;;;;;;6164293;23;20426;-80
2021/01/13 02:20:09;;;;;;;3.87;1.60;;;2.30;99.90;;;;;;6163984;23;20436;-80
2021/01/13 02:22:54;;;;;;;6.47;1.80;;;2.30;99.90;;;;;;6164030;23;20420;-80
2021/01/13 02:26:04;;;;;;;7.37;2.00;;;2.30;99.90;;;;;;6162939;23;20770;-80
2021/01/13 02:28:39;;;;;;;6.93;1.60;;;2.30;99.90;;;;;;6188263;23;20432;-80
2021/01/13 02:31:47;;;;;;;4.83;1.90;;;2.30;99.90;;;;;;6199575;23;20410;-80
2021/01/13 02:34:35;;;;;;;6.67;1.70;;;2.30;99.90;;;;;;6106708;23;21001;-80
2021/01/13 02:37:41;;;;;;;8.37;1.87;;;2.20;99.90;;;;;;6163840;23;20725;-80
2021/01/13 02:40:11;;;;;;;7.53;1.87;;;2.20;99.90;;;;;;6164996;23;20439;-80
2021/01/13 02:42:46;;;;;;;8.77;1.43;;;2.20;99.90;;;;;;6164205;23;20870;-80
2021/01/13 02:45:19;;;;;;;7.30;2.00;;;2.20;99.90;;;;;;6162877;23;20401;-80
2021/01/13 02:48:15;;;;;;;9.23;2.20;;;2.20;99.90;;;;;;6163353;23;20458;-80
2021/01/13 02:50:45;;;;;;;3.63;1.77;;;2.20;99.90;;;;;;6200057;23;20386;-80
2021/01/13 02:53:45;;;;;;;4.10;1.43;;;2.20;99.90;;;;;;6163553;23;20439;-80
2021/01/13 02:56:24;;;;;;;5.93;1.60;;;2.20;99.90;;;;;;6162810;23;20909;-80
2021/01/13 02:59:05;;;;;;;5.33;2.00;;;2.20;99.90;;;;;;6161610;23;20477;-80
2021/01/13 03:01:38;;;;;;;5.80;2.00;;;2.40;99.90;;;;;;6164878;23;20419;-80
2021/01/13 03:04:07;;;;;;;4.10;2.00;;;2.40;99.90;;;;;;6165049;23;20465;-80
2021/01/13 03:06:38;;;;;;;5.33;1.60;;;2.30;99.90;;;;;;6163036;23;20442;-80
2021/01/13 03:09:07;;;;;;;7.40;1.83;;;2.30;99.90;;;;;;6199422;23;20415;-80
2021/01/13 03:11:35;;;;;;;4.20;1.90;;;2.30;99.90;;;;;;6163393;23;20418;-80
2021/01/13 03:14:18;;;;;;;6.03;1.60;;;2.30;99.90;;;;;;6163729;23;20488;-80
2021/01/13 03:17:03;;;;;;;5.33;1.83;;;2.30;99.90;;;;;;6164120;23;20879;-80
2021/01/13 03:19:51;;;;;;;6.77;1.40;;;2.30;99.90;;;;;;6163013;23;20458;-80
2021/01/13 03:22:28;;;;;;;4.87;1.63;;;2.30;99.90;;;;;;6163844;23;20787;-80
2021/01/13 03:25:03;;;;;;;6.07;1.40;;;2.30;99.90;;;;;;6165036;23;20407;-80
2021/01/13 03:27:33;;;;;;;8.70;1.63;;;2.30;99.90;;;;;;6164718;23;20469;-80
2021/01/13 03:30:04;;;;;;;5.20;1.40;;;2.30;99.90;;;;;;6165244;23;20506;-80
2021/01/13 03:32:46;;;;;;;2.70;1.53;;;2.30;99.90;;;;;;6165940;23;20418;-80
2021/01/13 03:35:15;;;;;;;5.90;1.67;;;2.40;99.90;;;;;;6166012;23;20419;-80
2021/01/13 03:37:59;;;;;;;6.63;1.70;;;2.40;99.90;;;;;;6166990;23;20514;-80
2021/01/13 03:40:28;;;;;;;4.50;1.73;;;2.40;99.90;;;;;;6165333;23;20426;-80
2021/01/13 03:42:57;;;;;;;6.43;1.40;;;2.40;99.90;;;;;;6202706;23;20504;-80
2021/01/13 03:45:32;;;;;;;8.30;1.53;;;2.40;99.90;;;;;;6165786;23;20764;-81
2021/01/13 03:48:35;;;;;;;3.40;1.17;;;2.40;99.90;;;;;;6165379;23;20409;-80
2021/01/13 03:51:05;;;;;;;3.60;1.40;;;2.40;99.90;;;;;;6202414;23;20379;-80
2021/01/13 03:53:40;;;;;;;6.03;2.80;;;2.40;99.90;;;;;;6201548;23;20424;-80
2021/01/13 03:56:10;;;;;;;4.60;1.60;;;2.40;99.90;;;;;;6165311;23;20402;-81
2021/01/13 03:58:49;;;;;;;5.73;1.63;;;2.40;99.90;;;;;;6165676;23;20441;-81
2021/01/13 04:01:52;;;;;;;3.33;1.37;;;2.30;99.90;;;;;;6165612;23;20413;-81
2021/01/13 04:04:49;;;;;;;2.80;1.50;;;2.30;99.90;;;;;;6082003;23;20418;-81
2021/01/13 04:07:16;;;;;;;6.17;1.80;;;2.30;99.90;;;;;;6166304;23;20479;-81
2021/01/13 04:09:45;;;;;;;6.20;1.80;;;2.30;99.90;;;;;;6166329;23;20423;-81
2021/01/13 04:12:14;;;;;;;6.50;2.00;;;2.20;99.90;;;;;;6165761;23;20420;-81
2021/01/13 04:14:51;;;;;;;6.13;1.60;;;2.30;99.90;;;;;;6167062;23;20442;-81
2021/01/13 04:17:19;;;;;;;3.83;1.70;;;2.30;99.90;;;;;;6167042;23;20411;-81
2021/01/13 04:19:48;;;;;;;8.43;2.17;;;2.20;99.90;;;;;;6166253;23;20482;-81
2021/01/13 04:22:18;;;;;;;6.57;2.23;;;2.20;99.90;;;;;;6166950;23;20421;-81
2021/01/13 04:24:48;;;;;;;7.70;2.03;;;2.20;99.90;;;;;;6167546;23;20844;-81
2021/01/13 04:27:17;;;;;;;4.20;2.23;;;2.20;99.90;;;;;;6167077;23;20464;-81
2021/01/13 04:29:48;;;;;;;4.80;2.43;;;2.20;99.90;;;;;;6166594;23;21071;-81
2021/01/13 04:32:17;;;;;;;5.10;1.80;;;2.20;99.90;;;;;;6168166;23;20407;-81
2021/01/13 04:34:45;;;;;;;7.37;2.03;;;2.20;99.90;;;;;;6165483;23;20450;-81
2021/01/13 04:37:14;;;;;;;6.37;2.20;;;2.30;99.90;;;;;;6165071;23;20493;-81
2021/01/13 04:39:42;;;;;;;3.57;1.33;;;2.30;99.90;;;;;;6165160;23;20439;-81
2021/01/13 04:42:11;;;;;;;4.33;1.53;;;2.30;99.90;;;;;;6164761;23;20416;-81
2021/01/13 04:45:03;;;;;;;5.40;1.90;;;2.30;99.90;;;;;;6201766;23;20380;-81
2021/01/13 04:47:48;;;;;;;3.80;1.70;;;2.30;99.90;;;;;;6165577;23;20466;-81
2021/01/13 04:50:18;;;;;;;4.40;1.37;;;2.40;99.90;;;;;;6165504;23;20419;-81
2021/01/13 04:52:48;;;;;;;3.80;1.40;;;2.40;99.90;;;;;;6164574;23;20420;-81
2021/01/13 04:55:24;;;;;;;7.97;2.50;;;2.40;99.90;;;;;;6165233;23;20417;-81
2021/01/13 04:58:17;;;;;;;4.90;1.80;;;2.40;99.90;;;;;;6201217;23;20394;-80
2021/01/13 05:01:07;;;;;;;5.70;1.67;;;2.40;99.90;;;;;;6142078;23;20760;-80
2021/01/13 05:03:42;;;;;;;5.23;1.70;;;2.40;99.90;;;;;;6164942;23;20420;-81
2021/01/13 05:06:42;;;;;;;5.70;1.73;;;2.40;99.90;;;;;;6163837;23;20415;-80
2021/01/13 05:09:11;;;;;;;7.13;2.07;;;2.40;99.90;;;;;;6164872;23;20439;-81
2021/01/13 05:11:43;;;;;;;5.90;1.43;;;2.40;99.90;;;;;;6202750;23;20403;-81
2021/01/13 05:14:12;;;;;;;4.73;1.70;;;2.30;99.90;;;;;;6165646;23;20439;-81
2021/01/13 05:17:12;;;;;;;6.03;2.00;;;2.40;99.90;;;;;;6165724;23;20503;-81
2021/01/13 05:20:22;;;;;;;3.57;1.73;;;2.40;99.90;;;;;;6117418;23;20445;-81
2021/01/13 05:22:52;;;;;;;4.10;1.60;;;2.40;99.90;;;;;;6164192;23;20422;-81
2021/01/13 05:25:36;;;;;;;6.53;2.00;;;2.30;99.90;;;;;;6163296;23;20466;-81
2021/01/13 05:28:09;;;;;;;4.90;2.00;;;2.30;99.90;;;;;;6163881;23;20788;-80
2021/01/13 05:30:38;;;;;;;6.00;2.47;;;2.40;99.90;;;;;;6163695;23;20424;-80
2021/01/13 05:33:11;;;;;;;7.20;2.40;;;2.40;99.90;;;;;;6199909;23;20465;-80
2021/01/13 05:35:57;;;;;;;3.87;2.10;;;2.40;99.90;;;;;;6163209;23;20459;-81
2021/01/13 05:38:43;;;;;;;4.53;1.80;;;2.40;99.90;;;;;;6164167;23;20447;-81
2021/01/13 05:41:14;;;;;;;4.30;2.23;;;2.40;99.90;;;;;;6163364;23;20782;-80
2021/01/13 05:43:43;;;;;;;6.80;2.00;;;2.40;99.90;;;;;;6163795;23;20418;-80
2021/01/13 05:46:12;;;;;;;6.93;3.03;;;2.40;99.90;;;;;;6163905;23;20420;-80
2021/01/13 05:48:44;;;;;;;6.93;1.90;;;2.40;99.90;;;;;;6163768;23;20522;-80
2021/01/13 05:51:11;;;;;;;3.20;2.07;;;2.40;99.90;;;;;;6163775;23;20411;-80
2021/01/13 05:53:49;;;;;;;3.50;1.90;;;2.40;99.90;;;;;;6163700;23;20918;-80
2021/01/13 05:56:18;;;;;;;5.30;1.63;;;2.50;99.90;;;;;;6164110;23;20407;-80
2021/01/13 05:58:46;;;;;;;2.13;1.60;;;2.50;99.90;;;;;;6163455;23;20853;-80
2021/01/13 06:01:35;;;;;;;4.70;2.17;;;2.50;99.90;;;;;;6199747;23;20424;-80
2021/01/13 06:04:05;;;;;;;7.83;2.47;;;2.50;99.90;;;;;;6163866;23;20420;-80
2021/01/13 06:06:36;;;;;;;9.27;2.30;;;2.40;99.90;;;;;;6163402;23;20425;-80
2021/01/13 06:09:04;;;;;;;4.63;2.03;;;2.40;99.90;;;;;;6163859;23;20440;-80
2021/01/13 06:11:47;;;;;;;4.63;1.90;;;2.40;99.90;;;;;;6163424;23;20419;-80
2021/01/13 06:14:24;;;;;;;7.17;2.13;;;2.40;99.90;;;;;;6200119;23;20172;-80
2021/01/13 06:16:52;;;;;;;5.50;2.17;;;2.40;99.90;;;;;;6163870;23;20418;-80
2021/01/13 06:19:21;;;;;;;6.63;2.27;;;2.40;99.90;;;;;;6163527;23;20435;-80
2021/01/13 06:22:05;;;;;;;6.40;2.92;;;2.40;99.90;;;;;;6163051;23;20423;-80
2021/01/13 06:24:34;;;;;;;6.20;4.00;;;2.40;99.90;;;;;;6164203;23;20161;-80
2021/01/13 06:27:15;;;;;;;3.97;2.00;;;2.40;99.90;;;;;;6163921;23;20804;-80
2021/01/13 06:29:49;;;;;;;8.77;2.60;;;2.40;99.90;;;;;;6163197;23;20953;-80
2021/01/13 06:32:30;;;;;;;5.67;2.40;;;2.30;99.90;;;;;;6163173;23;20465;-80
2021/01/13 06:35:22;;;;;;;5.00;2.07;;;2.30;99.90;;;;;;6200869;23;20894;-80
2021/01/13 06:37:51;;;;;;;6.57;2.40;;;2.30;99.90;;;;;;6164736;23;20450;-80
2021/01/13 06:40:21;;;;;;;5.47;2.60;;;2.30;99.90;;;;;;6163981;23;20463;-80
2021/01/13 06:42:49;;;;;;;4.50;2.43;;;2.30;99.90;;;;;;6165197;23;20423;-80
2021/01/13 06:45:31;;;;;;;5.80;2.57;;;2.30;99.90;;;;;;6164295;23;20920;-80
2021/01/13 06:47:58;;;;;;;5.90;2.77;;;2.30;99.90;;;;;;6164435;23;20774;-80
2021/01/13 06:50:33;;;;;;;6.30;2.37;;;2.30;99.90;;;;;;6164968;23;20424;-80
2021/01/13 06:53:06;;;;;;;7.43;3.20;;;2.30;99.90;;;;;;6201285;23;20380;-80
2021/01/13 06:55:34;;;;;;;5.90;3.23;;;2.30;99.90;;;;;;6164360;23;20918;-80
2021/01/13 06:58:11;;;;;;;5.30;2.77;;;2.30;99.90;;;;;;6163885;23;20474;-80
2021/01/13 07:00:38;;;;;;;7.50;3.00;;;2.30;99.90;;;;;;6163825;23;20881;-80
2021/01/13 07:03:29;;;;;;;5.87;2.73;;;2.30;99.90;;;;;;6165510;23;20762;-80
2021/01/13 07:06:01;;;;;;;9.13;3.57;;;2.40;99.90;;;;;;6165666;23;20496;-80
2021/01/13 07:08:29;;;;;;;10.33;4.00;;;2.30;99.90;;;;;;6202269;23;20415;-80
2021/01/13 07:11:05;;;;;;;6.47;2.90;;;2.40;99.90;;;;;;6165814;23;20494;-80
2021/01/13 07:13:34;;;;;;;6.37;2.70;;;2.40;99.90;;;;;;6166565;23;20438;-80
2021/01/13 07:16:04;;;;;;;3.27;2.33;;;2.40;99.90;;;;;;6166141;23;20423;-80
2021/01/13 07:18:32;;;;;;;7.73;3.17;;;2.40;99.90;;;;;;6202695;23;20426;-80
2021/01/13 07:21:06;;;;;;;4.27;2.27;;;2.40;99.90;;;;;;6165575;23;20752;-80
2021/01/13 07:23:34;;;;;;;5.63;2.47;;;2.50;99.90;;;;;;6203397;23;20379;-80
2021/01/13 07:26:01;;;;;;;7.70;3.00;;;2.50;99.90;;;;;;6166683;23;20439;-80
2021/01/13 07:28:36;;;;;;;5.23;3.13;;;2.50;99.90;;;;;;6167095;23;20525;-80
2021/01/13 07:31:04;;;;;;;3.20;1.90;;;2.50;99.90;;;;;;6166987;23;20427;-80
2021/01/13 07:33:34;;;;;;;2.57;2.17;;;2.50;99.90;;;;;;6203699;23;20437;-80
2021/01/13 07:36:05;;;;;;;6.30;2.23;;;2.50;99.90;;;;;;6172866;23;20414;-81
2021/01/13 07:38:33;;;;;;;4.33;2.57;;;2.50;99.90;;;;;;6166036;23;20431;-81
2021/01/13 07:41:04;;;;;;;4.90;1.80;;;2.50;99.90;;;;;;6166967;23;20408;-81
2021/01/13 07:44:14;;;;;;;4.80;2.03;;;2.50;99.90;;;;;;6166055;23;20411;-80
2021/01/13 07:47:00;;;;;;;5.17;1.93;;;2.50;99.90;;;;;;6048897;23;20465;-80
2021/01/13 07:49:47;;;;;;;6.33;2.80;;;2.50;99.90;;;;;;6165866;23;20979;-80
2021/01/13 07:52:18;;;;;;;3.17;2.00;;;2.50;99.90;;;;;;6167574;23;20465;-80
2021/01/13 07:54:49;;;;;;;4.73;2.00;;;2.50;99.90;;;;;;6173694;23;20434;-80
2021/01/13 07:57:24;;;;;;;6.63;2.70;;;2.50;99.90;;;;;;6175369;23;20429;-80
2021/01/13 08:00:07;;;;;;;5.80;2.10;;;2.50;99.90;;;;;;6214122;23;20407;-80
2021/01/13 08:03:32;;;;;;;3.83;2.03;;;2.50;99.90;;;;;;6178879;23;20417;-80
2021/01/13 08:06:36;;;;;;;5.80;2.20;;;2.50;99.90;;;;;;6193153;23;20427;-80
2021/01/13 08:09:19;;;;;;;4.37;2.00;;;2.60;99.90;;;;;;6165476;23;20445;-80
2021/01/13 08:12:31;;;;;;;11.10;3.03;;;2.60;99.90;;;;;;6165610;23;20902;-80
2021/01/13 08:15:43;;;;;;;5.70;2.30;;;2.60;99.90;;;;;;6165782;23;20439;-80
2021/01/13 08:18:57;;;;;;;7.13;2.27;;;2.60;99.90;;;;;;6077013;23;20441;-80
2021/01/13 08:21:32;;;;;;;3.93;2.90;;;2.60;99.90;;;;;;6166379;23;20422;-81
2021/01/13 08:24:04;;;;;;;4.10;2.10;;;2.60;99.90;;;;;;6166819;23;20790;-80
2021/01/13 08:26:31;;;;;;;3.80;2.07;;;2.60;99.90;;;;;;6167253;23;20411;-81
2021/01/13 08:29:01;;;;;;;10.63;2.70;;;2.60;99.90;;;;;;6166702;23;20442;-81
2021/01/13 08:31:31;;;;;;;9.27;2.60;;;2.60;99.90;;;;;;6201741;23;20855;-80
2021/01/13 08:34:07;;;;;;;6.33;2.80;;;2.60;99.90;;;;;;6164315;23;20442;-80
2021/01/13 08:36:36;;;;;;;4.07;3.00;;;2.70;99.90;;;;;;6201072;23;20414;-80
2021/01/13 08:39:09;;;;;;;8.67;2.47;;;2.70;99.90;;;;;;6163561;23;20440;-81
2021/01/13 08:41:37;;;;;;;3.93;2.27;;;2.70;99.90;;;;;;6201597;23;20382;-81
2021/01/13 08:44:13;;;;;;;7.27;2.93;;;2.80;99.90;;;;;;6163289;23;20748;-80
2021/01/13 08:46:49;;;;;;;6.03;2.40;;;2.90;99.90;;;;;;6200151;23;20411;-80
2021/01/13 08:49:22;;;;;;;5.17;2.50;;;2.80;99.90;;;;;;6200448;23;20505;-80
2021/01/13 08:52:15;;;;;;;4.63;2.23;;;2.90;99.90;;;;;;6199888;23;20392;-80
2021/01/13 08:54:44;;;;;;;4.67;2.10;;;2.90;99.90;;;;;;6163766;23;20435;-80
2021/01/13 08:57:13;;;;;;;7.33;2.83;;;2.90;99.90;;;;;;6163656;23;20472;-80
2021/01/13 08:59:43;;;;;;;8.03;2.83;;;2.90;99.90;;;;;;6163444;23;20440;-80
2021/01/13 09:02:12;;;;;;;5.07;2.90;;;2.90;99.90;;;;;;6163329;23;20423;-80
2021/01/13 09:04:50;;;;;;;6.20;3.33;;;3.00;99.90;;;;;;6200270;23;20396;-80
2021/01/13 09:07:21;;;;;;;6.20;2.63;;;3.00;99.90;;;;;;6163596;23;20442;-80
2021/01/13 09:09:57;;;;;;;9.83;3.40;;;3.00;99.90;;;;;;6163796;23;20447;-80
2021/01/13 09:12:43;;;;;;;8.80;2.97;;;3.10;99.90;;;;;;6200913;23;20388;-80
2021/01/13 09:15:25;;;;;;;6.83;3.07;;;3.10;99.90;;;;;;6164088;23;20433;-80
2021/01/13 09:17:55;;;;;;;9.73;4.30;;;3.20;99.90;;;;;;6200280;23;20383;-80
2021/01/13 09:20:26;;;;;;;8.33;3.70;;;3.20;99.90;;;;;;6164334;23;20482;-80
2021/01/13 09:22:56;;;;;;;5.67;2.87;;;3.20;99.90;;;;;;6199798;23;20434;-80
2021/01/13 09:25:25;;;;;;;7.80;2.50;;;3.20;99.90;;;;;;6163777;23;20750;-80
2021/01/13 09:27:56;;;;;;;6.90;2.60;;;3.30;99.90;;;;;;6164241;23;20426;-80
2021/01/13 09:30:30;;;;;;;6.13;2.20;;;3.30;99.90;;;;;;6163447;23;20447;-80
2021/01/13 09:32:58;;;;;;;5.70;2.30;;;3.30;99.90;;;;;;6200486;23;20384;-80
2021/01/13 09:35:27;;;;;;;5.77;1.90;;;3.40;99.90;;;;;;6163923;23;20929;-80
2021/01/13 09:37:57;;;;;;;9.33;2.10;;;3.40;99.90;;;;;;6164000;23;20415;-80
2021/01/13 09:40:44;;;;;;;6.30;2.00;;;3.40;99.90;;;;;;6164271;23;20477;-80
2021/01/13 09:43:27;;;;;;;7.75;2.05;;;3.40;99.90;;;;;;6164223;23;20425;-80
2021/01/13 09:45:56;;;;;;;8.23;2.17;;;3.40;99.90;;;;;;6164770;23;20160;-80
2021/01/13 09:48:24;;;;;;;4.60;2.00;;;3.50;99.90;;;;;;6164513;23;20485;-80
2021/01/13 09:51:00;;;;;;;6.40;2.83;;;3.50;99.90;;;;;;6164720;23;20526;-80
2021/01/13 09:53:34;;;;;;;5.80;2.00;;;3.50;99.90;;;;;;6163447;23;20430;-80
2021/01/13 09:56:07;;;;;;;4.83;1.50;;;3.60;99.90;;;;;;6165177;23;20612;-80
2021/01/13 09:58:41;;;;;;;4.43;1.50;;;3.60;99.90;;;;;;6165013;23;20939;-80
2021/01/13 10:01:17;;;;;;;5.27;1.90;;;3.60;99.90;;;;;;6165732;23;20418;-80
2021/01/13 10:03:47;;;;;;;5.90;2.00;;;3.60;99.90;;;;;;6164802;23;20414;-80
2021/01/13 10:06:20;;;;;;;9.13;2.67;;;3.60;99.90;;;;;;6164688;23;20444;-80
2021/01/13 10:09:15;;;;;;;7.67;3.20;;;3.60;99.90;;;;;;6200465;23;20450;-80
2021/01/13 10:11:44;;;;;;;5.17;2.10;;;3.60;99.90;;;;;;6164514;23;20425;-80
2021/01/13 10:14:13;;;;;;;5.90;2.40;;;3.70;99.90;;;;;;6164214;23;20517;-80
2021/01/13 10:16:43;;;;;;;5.03;2.27;;;3.70;99.90;;;;;;6164862;23;20477;-80
2021/01/13 10:19:11;;;;;;;5.13;2.20;;;3.70;99.90;;;;;;6163934;23;20938;-80
2021/01/13 10:21:40;;;;;;;4.50;2.03;;;3.70;99.90;;;;;;6164757;23;20509;-80
2021/01/13 10:24:10;;;;;;;8.27;2.13;;;3.80;99.90;;;;;;6164860;23;20953;-80
2021/01/13 10:26:41;;;;;;;6.30;2.10;;;3.80;99.90;;;;;;6165584;23;20410;-80
2021/01/13 10:29:09;;;;;;;7.17;2.10;;;3.80;99.90;;;;;;6166215;23;20445;-80
2021/01/13 10:31:38;;;;;;;6.10;1.93;;;3.90;99.90;;;;;;6165913;23;20415;-80
2021/01/13 10:34:10;;;;;;;8.10;2.80;;;3.90;99.90;;;;;;6171377;23;20449;-80
2021/01/13 10:36:49;;;;;;;5.10;2.37;;;3.90;99.90;;;;;;6200730;23;20833;-80
2021/01/13 10:39:22;;;;;;;6.20;2.70;;;4.00;99.90;;;;;;6164409;23;20431;-80
2021/01/13 10:41:52;;;;;;;7.10;2.40;;;4.00;99.90;;;;;;6164664;23;20414;-80
2021/01/13 10:44:21;;;;;;;9.70;3.20;;;4.00;99.90;;;;;;6164372;23;20407;-80
2021/01/13 10:46:52;;;;;;;8.10;2.30;;;4.10;99.90;;;;;;6165388;23;20419;-80
2021/01/13 10:49:34;;;;;;;4.50;2.53;;;4.10;99.90;;;;;;6165096;23;20514;-80
2021/01/13 10:52:05;;;;;;;7.90;2.70;;;4.20;99.90;;;;;;6164881;23;20407;-80
2021/01/13 10:54:33;;;;;;;12.43;3.20;;;4.20;99.90;;;;;;6165815;23;20435;-80
2021/01/13 10:57:04;;;;;;;7.00;2.70;;;4.20;99.90;;;;;;6166122;23;20418;-81
2021/01/13 10:59:32;;;;;;;5.13;2.87;;;4.20;99.90;;;;;;6201715;23;20424;-81
2021/01/13 11:02:02;;;;;;;6.00;2.30;;;4.30;99.90;;;;;;6165229;23;20419;-80
2021/01/13 11:04:39;;;;;;;7.50;2.80;;;4.30;99.90;;;;;;6165223;23;20407;-80
2021/01/13 11:07:11;;;;;;;6.70;1.60;;;4.30;99.90;;;;;;6202271;23;20828;-80
2021/01/13 11:09:42;;;;;;;5.90;1.70;;;4.40;99.90;;;;;;6164833;23;20926;-80
2021/01/13 11:12:13;;;;;;;5.73;2.93;;;4.40;99.90;;;;;;6165498;23;20419;-80
2021/01/13 11:14:46;;;;;;;7.27;2.23;;;4.50;99.90;;;;;;6165437;23;20431;-80
2021/01/13 11:17:15;;;;;;;8.70;2.70;;;4.50;99.90;;;;;;6165231;23;20410;-81
2021/01/13 11:19:45;;;;;;;7.30;2.40;;;4.60;99.90;;;;;;6165796;23;20447;-81
2021/01/13 11:22:15;;;;;;;3.93;2.00;;;4.70;99.90;;;;;;6165927;23;20415;-81
2021/01/13 11:24:45;;;;;;;5.73;1.80;;;4.70;99.90;;;;;;6165802;23;20415;-80
2021/01/13 11:27:16;;;;;;;4.40;1.80;;;4.70;99.90;;;;;;6165861;23;20428;-80
2021/01/13 11:29:47;;;;;;;5.63;2.17;;;4.80;99.90;;;;;;6167650;23;20497;-80
2021/01/13 11:32:17;;;;;;;8.97;2.40;;;4.80;99.90;;;;;;6166966;23;20451;-80
2021/01/13 11:34:53;;;;;;;7.00;2.23;;;4.80;99.90;;;;;;6166957;23;20494;-80
2021/01/13 11:37:48;;;;;;;3.70;1.53;;;4.80;99.90;;;;;;6165446;23;20411;-80
2021/01/13 11:40:34;;;;;;;10.73;2.57;;;4.80;99.90;;;;;;6166433;23;20506;-81
2021/01/13 11:43:43;;;;;;;6.33;2.77;;;4.80;99.90;;;;;;6166219;23;20426;-81
2021/01/13 11:46:14;;;;;;;6.93;2.27;;;4.90;99.90;;;;;;6171161;23;20415;-80
2021/01/13 11:49:15;;;;;;;6.27;2.00;;;4.80;99.90;;;;;;6165745;23;20447;-80
2021/01/13 11:51:47;;;;;;;7.33;2.00;;;4.90;99.90;;;;;;6167522;23;20411;-80
2021/01/13 11:54:24;;;;;;;5.93;2.33;;;4.90;99.90;;;;;;6165855;23;20439;-80
2021/01/13 11:56:51;;;;;;;8.13;2.30;;;4.90;99.90;;;;;;6165313;23;20412;-80
2021/01/13 11:59:35;;;;;;;5.87;1.73;;;4.90;99.90;;;;;;6165143;23;20443;-80
2021/01/13 12:02:02;;;;;;;7.00;2.47;;;4.90;99.90;;;;;;6164945;23;20478;-80
2021/01/13 12:04:30;;;;;;;8.63;2.73;;;5.00;99.90;;;;;;6165953;23;20454;-80
2021/01/13 12:06:59;;;;;;;6.07;2.07;;;5.00;99.90;;;;;;6165068;23;20416;-80
2021/01/13 12:09:26;;;;;;;5.90;2.23;;;5.00;99.90;;;;;;6165478;23;20435;-80
2021/01/13 12:11:54;;;;;;;5.33;2.53;;;5.10;99.90;;;;;;6164822;23;20725;-80
2021/01/13 12:14:21;;;;;;;5.00;2.57;;;5.10;99.90;;;;;;6164360;23;20435;-80
2021/01/13 12:17:01;;;;;;;5.10;2.03;;;5.20;99.90;;;;;;6201617;23;20410;-80
2021/01/13 12:19:41;;;;;;;6.30;1.90;;;5.20;99.90;;;;;;6164586;23;20567;-80
2021/01/13 12:22:09;;;;;;;4.50;2.20;;;5.20;99.90;;;;;;6165472;23;20408;-80
2021/01/13 12:24:38;;;;;;;5.60;1.50;;;5.20;99.90;;;;;;6164951;23;20446;-80
2021/01/13 12:27:21;;;;;;;5.33;1.90;;;5.20;99.90;;;;;;6200737;23;20435;-80
2021/01/13 12:30:09;;;;;;;6.90;1.73;;;5.20;99.90;;;;;;6164289;23;20439;-80
2021/01/13 12:32:39;;;;;;;7.27;1.93;;;5.20;99.90;;;;;;6201022;23;20796;-80
2021/01/13 12:35:09;;;;;;;4.60;2.00;;;5.20;99.90;;;;;;6164761;23;20444;-80
2021/01/13 12:37:48;;;;;;;8.43;2.27;;;5.30;99.90;;;;;;6165446;23;20411;-80
2021/01/13 12:40:27;;;;;;;4.47;1.70;;;5.30;99.90;;;;;;6165506;23;20744;-80
2021/01/13 12:42:54;;;;;;;6.40;2.30;;;5.30;99.90;;;;;;6165849;23;20408;-80
2021/01/13 12:45:23;;;;;;;5.80;1.80;;;5.40;99.90;;;;;;6164939;23;20798;-80
2021/01/13 12:47:55;;;;;;;5.47;1.30;;;5.40;99.90;;;;;;6165739;23;20161;-80
2021/01/13 12:50:23;;;;;;;5.63;1.57;;;5.50;99.90;;;;;;6165091;23;20412;-80
2021/01/13 12:52:52;;;;;;;5.47;1.97;;;5.50;99.90;;;;;;6202008;23;20814;-80
2021/01/13 12:55:20;;;;;;;5.30;1.80;;;5.60;99.90;;;;;;6165313;23;20922;-80
2021/01/13 12:57:47;;;;;;;6.13;1.83;;;5.60;99.90;;;;;;6165792;23;20420;-80
2021/01/13 13:00:15;;;;;;;9.63;2.23;;;5.60;99.90;;;;;;6165770;23;20447;-80
2021/01/13 13:02:42;;;;;;;4.60;1.57;;;5.60;99.90;;;;;;6165698;23;20503;-80
2021/01/13 13:05:12;;;;;;;5.60;2.10;;;5.60;99.90;;;;;;6164900;23;20436;-80
2021/01/13 13:07:40;;;;;;;5.47;1.80;;;5.70;99.90;;;;;;6165311;23;20411;-80
2021/01/13 13:10:08;;;;;;;4.57;1.90;;;5.70;99.90;;;;;;6165138;23;20446;-80
2021/01/13 13:12:35;;;;;;;6.40;1.97;;;5.70;99.90;;;;;;6165434;23;20499;-80
2021/01/13 13:15:04;;;;;;;10.20;2.00;;;5.70;99.90;;;;;;6164617;23;20439;-80
2021/01/13 13:17:31;;;;;;;6.53;2.20;;;5.70;99.90;;;;;;6165361;23;20462;-80
2021/01/13 13:19:59;;;;;;;7.63;2.17;;;5.60;99.90;;;;;;6202495;23;20427;-80
2021/01/13 13:22:27;;;;;;;5.40;2.00;;;5.60;99.90;;;;;;6165944;23;20448;-80
2021/01/13 13:24:54;;;;;;;5.97;2.50;;;5.60;99.90;;;;;;6201748;23;20454;-80
2021/01/13 13:27:21;;;;;;;5.57;2.43;;;5.50;99.90;;;;;;6202784;23;20420;-80
2021/01/13 13:29:48;;;;;;;11.43;2.00;;;5.40;99.90;;;;;;6166219;23;20837;-80
2021/01/13 13:32:18;;;;;;;8.90;2.73;;;5.40;99.90;;;;;;6202770;23;20400;-80
2021/01/13 13:34:45;;;;;;;7.70;2.30;;;5.30;99.90;;;;;;6166280;23;20501;-80